createdAt,value
2018-12-19T00:01:17.063Z,35.93
2018-12-19T00:03:44.570Z,34.77
2018-12-19T00:06:12.074Z,33.57
2018-12-19T00:08:39.549Z,34.80
2018-12-19T00:11:07.042Z,35.50
2018-12-19T00:13:34.568Z,36.10
2018-12-19T00:16:02.055Z,36.43
2018-12-19T00:18:29.566Z,35.30
2018-12-19T00:20:57.045Z,36.63
2018-12-19T00:23:24.535Z,34.20
2018-12-19T00:25:52.060Z,35.90
2018-12-19T00:28:19.588Z,35.00
2018-12-19T00:30:47.111Z,35.90
2018-12-19T00:33:14.619Z,35.30
2018-12-19T00:35:42.114Z,35.27
2018-12-19T00:38:09.597Z,34.87
2018-12-19T00:40:37.098Z,33.43
2018-12-19T00:43:04.592Z,33.40
2018-12-19T00:45:32.070Z,35.23
2018-12-19T00:47:59.585Z,35.70
2018-12-19T00:50:27.061Z,33.50
2018-12-19T00:52:54.541Z,33.97
2018-12-19T00:55:22.063Z,34.63
2018-12-19T00:57:49.566Z,36.10
2018-12-19T01:00:17.066Z,35.10
2018-12-19T01:05:18.330Z,33.77
2018-12-19T01:07:45.829Z,34.80
2018-12-19T01:10:13.306Z,34.37
2018-12-19T01:12:41.572Z,34.03
2018-12-19T01:15:09.049Z,33.50
2018-12-19T01:17:36.539Z,33.63
2018-12-19T01:20:04.611Z,33.67
2018-12-19T01:22:32.101Z,33.00
2018-12-19T01:24:59.585Z,33.83
2018-12-19T01:27:27.081Z,33.10
2018-12-19T01:29:54.572Z,33.47
2018-12-19T01:32:22.070Z,34.27
2018-12-19T01:34:49.556Z,31.83
2018-12-19T01:37:17.604Z,32.93
2018-12-19T01:39:45.118Z,32.03
2018-12-19T01:42:12.597Z,33.23
2018-12-19T01:44:40.066Z,32.57
2018-12-19T01:47:07.533Z,33.83
2018-12-19T01:49:35.025Z,32.27
2018-12-19T01:52:02.509Z,32.70
2018-12-19T01:54:29.989Z,32.83
2018-12-19T01:56:57.461Z,31.73
2018-12-19T01:59:24.953Z,32.40
2018-12-19T02:01:52.463Z,34.00
2018-12-19T02:04:19.947Z,32.60
2018-12-19T02:06:47.488Z,34.20
2018-12-19T02:09:14.981Z,33.93
2018-12-19T02:11:42.484Z,34.30
2018-12-19T02:14:09.964Z,33.23
2018-12-19T02:16:37.465Z,32.30
2018-12-19T02:19:05.082Z,34.77
2018-12-19T02:21:32.563Z,34.43
2018-12-19T02:24:00.061Z,33.53
2018-12-19T02:26:27.570Z,33.03
2018-12-19T02:28:55.254Z,33.77
2018-12-19T02:31:22.790Z,32.60
2018-12-19T02:33:50.263Z,34.93
2018-12-19T02:36:17.759Z,33.60
2018-12-19T02:38:45.279Z,34.50
2018-12-19T02:41:12.794Z,33.17
2018-12-19T02:43:40.271Z,35.20
2018-12-19T02:46:07.781Z,34.30
2018-12-19T02:48:35.279Z,35.17
2018-12-19T02:51:02.781Z,35.17
2018-12-19T02:53:30.300Z,34.30
2018-12-19T02:55:57.823Z,33.67
2018-12-19T02:58:25.314Z,34.57
2018-12-19T03:00:52.827Z,34.37
2018-12-19T03:03:20.365Z,35.33
2018-12-19T03:05:47.849Z,34.67
2018-12-19T03:08:15.369Z,35.67
2018-12-19T03:10:42.845Z,34.50
2018-12-19T03:13:10.375Z,34.93
2018-12-19T03:15:37.877Z,34.67
2018-12-19T03:18:05.371Z,35.57
2018-12-19T03:20:32.883Z,35.30
2018-12-19T03:23:00.376Z,35.73
2018-12-19T03:25:27.887Z,34.00
2018-12-19T03:27:55.370Z,35.50
2018-12-19T03:30:22.889Z,33.87
2018-12-19T03:32:50.386Z,34.77
2018-12-19T03:35:17.868Z,35.17
2018-12-19T03:37:45.391Z,34.40
2018-12-19T03:40:12.882Z,36.00
2018-12-19T03:42:40.389Z,37.23
2018-12-19T03:45:07.896Z,38.27
2018-12-19T03:47:35.416Z,38.63
2018-12-19T03:50:02.991Z,37.83
2018-12-19T03:52:30.481Z,37.60
2018-12-19T03:54:58.005Z,37.40
2018-12-19T03:57:25.868Z,39.47
2018-12-19T03:59:53.351Z,36.97
2018-12-19T04:02:20.845Z,39.50
2018-12-19T04:04:48.315Z,41.57
2018-12-19T04:07:15.831Z,40.63
2018-12-19T04:09:43.330Z,39.80
2018-12-19T04:12:10.835Z,39.27
2018-12-19T04:14:38.314Z,36.90
2018-12-19T04:17:05.796Z,37.47
2018-12-19T04:19:33.356Z,38.40
2018-12-19T04:22:00.842Z,38.93
2018-12-19T04:24:28.322Z,39.40
2018-12-19T04:26:55.842Z,37.93
2018-12-19T04:29:23.314Z,38.70
2018-12-19T04:31:50.942Z,38.17
2018-12-19T04:34:18.430Z,38.93
2018-12-19T04:36:45.914Z,39.93
2018-12-19T04:39:13.406Z,37.90
2018-12-19T04:41:40.885Z,38.73
2018-12-19T04:44:08.394Z,38.20
2018-12-19T04:46:35.924Z,42.40
2018-12-19T04:49:03.406Z,44.07
2018-12-19T04:51:31.027Z,40.87
2018-12-19T04:53:58.521Z,38.07
2018-12-19T04:56:25.995Z,39.57
2018-12-19T04:58:53.468Z,41.73
2018-12-19T05:01:20.938Z,39.00
2018-12-19T05:03:48.407Z,37.87
2018-12-19T05:06:15.927Z,37.80
2018-12-19T05:08:43.430Z,36.47
2018-12-19T05:11:10.901Z,39.40
2018-12-19T05:13:38.386Z,37.20
2018-12-19T05:16:05.918Z,37.43
2018-12-19T05:18:33.422Z,38.70
2018-12-19T05:21:00.954Z,35.90
2018-12-19T05:23:28.447Z,36.97
2018-12-19T05:25:55.939Z,36.60
2018-12-19T05:28:23.459Z,36.87
2018-12-19T05:30:50.964Z,37.20
2018-12-19T05:33:18.494Z,38.23
2018-12-19T05:35:45.994Z,38.10
2018-12-19T05:38:14.452Z,37.90
2018-12-19T05:40:41.962Z,35.97
2018-12-19T05:43:09.499Z,35.33
2018-12-19T05:45:37.011Z,36.70
2018-12-19T05:48:04.506Z,38.27
2018-12-19T05:50:31.999Z,36.23
2018-12-19T05:52:59.498Z,37.20
2018-12-19T05:55:26.988Z,38.17
2018-12-19T05:57:54.498Z,37.93
2018-12-19T06:00:21.978Z,35.93
2018-12-19T06:02:49.494Z,37.57
2018-12-19T06:05:17.015Z,37.60
2018-12-19T06:07:44.507Z,35.87
2018-12-19T06:10:11.993Z,37.33
2018-12-19T06:12:39.490Z,36.17
2018-12-19T06:15:06.975Z,37.33
2018-12-19T06:17:34.474Z,35.53
2018-12-19T06:20:01.949Z,36.17
2018-12-19T06:22:29.431Z,36.00
2018-12-19T06:24:56.967Z,38.47
2018-12-19T06:27:24.461Z,38.77
2018-12-19T06:29:51.952Z,37.90
2018-12-19T06:32:19.442Z,39.50
2018-12-19T06:34:47.002Z,38.03
2018-12-19T06:37:14.678Z,40.97
2018-12-19T06:39:42.548Z,37.87
2018-12-19T06:42:10.068Z,40.10
2018-12-19T06:44:37.608Z,40.70
2018-12-19T06:47:05.102Z,38.87
2018-12-19T06:49:32.582Z,40.87
2018-12-19T06:52:00.115Z,41.10
2018-12-19T06:54:28.555Z,39.13
2018-12-19T06:56:56.059Z,38.57
2018-12-19T06:59:23.570Z,39.83
2018-12-19T07:01:51.041Z,38.67
2018-12-19T07:04:24.608Z,38.47
2018-12-19T07:06:52.876Z,39.93
2018-12-19T07:09:20.376Z,38.83
2018-12-19T07:11:47.899Z,39.33
2018-12-19T07:14:15.393Z,40.13
2018-12-19T07:16:43.591Z,41.43
2018-12-19T07:19:11.336Z,39.40
2018-12-19T07:21:38.860Z,38.97
2018-12-19T07:24:06.433Z,39.63
2018-12-19T07:26:33.937Z,41.03
2018-12-19T07:29:02.321Z,38.80
2018-12-19T07:31:29.842Z,39.77
2018-12-19T07:33:57.369Z,40.20
2018-12-19T07:36:24.874Z,41.63
2018-12-19T07:38:52.419Z,41.77
2018-12-19T07:41:19.910Z,39.63
2018-12-19T07:43:47.443Z,39.80
2018-12-19T07:46:19.855Z,40.77
2018-12-19T07:48:44.632Z,41.43
2018-12-19T07:51:12.131Z,38.43
2018-12-19T07:53:39.627Z,41.17
2018-12-19T07:56:07.236Z,41.57
2018-12-19T07:58:34.770Z,41.63
2018-12-19T08:01:02.254Z,39.73
2018-12-19T08:03:30.176Z,42.60
2018-12-19T08:05:57.732Z,41.53
2018-12-19T08:08:25.207Z,42.30
2018-12-19T08:10:52.690Z,40.80
2018-12-19T08:13:20.314Z,40.53
2018-12-19T08:15:47.893Z,38.37
2018-12-19T08:18:15.387Z,39.13
2018-12-19T08:20:42.911Z,37.73
2018-12-19T08:23:10.426Z,39.03
2018-12-19T08:25:37.923Z,39.07
2018-12-19T08:28:05.405Z,38.53
2018-12-19T08:30:32.896Z,38.97
2018-12-19T08:33:00.406Z,36.17
2018-12-19T08:35:27.910Z,36.83
2018-12-19T08:37:55.387Z,38.00
2018-12-19T08:40:22.861Z,37.87
2018-12-19T08:42:50.325Z,36.97
2018-12-19T08:45:17.919Z,35.90
2018-12-19T08:47:45.390Z,39.10
2018-12-19T08:50:12.861Z,37.53
2018-12-19T08:52:40.334Z,36.83
2018-12-19T08:55:07.809Z,38.23
2018-12-19T08:57:35.314Z,36.17
2018-12-19T09:00:03.061Z,34.57
2018-12-19T09:02:30.533Z,37.93
2018-12-19T09:04:58.006Z,37.53
2018-12-19T09:07:25.478Z,37.97
2018-12-19T09:09:52.974Z,38.13
2018-12-19T09:12:20.454Z,37.80
2018-12-19T09:14:47.917Z,38.27
2018-12-19T09:17:15.484Z,38.73
2018-12-19T09:19:43.156Z,35.13
2018-12-19T09:22:11.047Z,37.13
2018-12-19T09:24:38.530Z,38.07
2018-12-19T09:27:06.010Z,37.07
2018-12-19T09:29:33.491Z,37.33
2018-12-19T09:32:01.009Z,35.37
2018-12-19T09:34:28.511Z,37.70
2018-12-19T09:36:55.998Z,37.07
2018-12-19T09:39:23.465Z,38.07
2018-12-19T09:41:50.967Z,36.23
2018-12-19T09:44:18.442Z,36.80
2018-12-19T09:46:45.956Z,36.27
2018-12-19T09:49:14.095Z,36.93
2018-12-19T09:51:41.675Z,36.83
2018-12-19T09:54:10.222Z,35.87
2018-12-19T09:56:37.695Z,37.07
2018-12-19T09:59:05.164Z,36.27
2018-12-19T10:01:32.639Z,35.67
2018-12-19T10:04:00.138Z,35.87
2018-12-19T10:06:27.643Z,35.67
2018-12-19T10:08:55.111Z,35.10
2018-12-19T10:11:22.597Z,36.40
2018-12-19T10:13:50.102Z,33.80
2018-12-19T10:16:17.578Z,35.57
2018-12-19T10:18:45.083Z,35.23
2018-12-19T10:21:12.574Z,36.00
2018-12-19T10:23:40.053Z,34.80
2018-12-19T10:26:12.715Z,35.77
2018-12-19T10:28:40.187Z,34.10
2018-12-19T10:31:07.690Z,35.23
2018-12-19T10:33:35.149Z,35.30
2018-12-19T10:36:02.695Z,33.80
2018-12-19T10:38:30.199Z,36.63
2018-12-19T10:40:57.667Z,35.07
2018-12-19T10:43:25.166Z,33.63
2018-12-19T10:45:52.637Z,33.83
2018-12-19T10:48:20.115Z,32.17
2018-12-19T10:50:47.596Z,33.30
2018-12-19T10:53:15.796Z,34.47
2018-12-19T10:55:43.296Z,33.03
2018-12-19T10:58:10.767Z,36.13
2018-12-19T11:00:43.835Z,33.63
2018-12-19T11:03:11.300Z,34.47
2018-12-19T11:05:38.784Z,35.10
2018-12-19T11:08:06.271Z,33.00
2018-12-19T11:10:33.787Z,32.93
2018-12-19T11:13:01.262Z,34.77
2018-12-19T11:15:28.725Z,34.67
2018-12-19T11:17:56.235Z,33.67
2018-12-19T11:20:23.748Z,32.93
2018-12-19T11:22:51.224Z,33.97
2018-12-19T11:25:18.751Z,32.10
2018-12-19T11:27:46.315Z,34.13
2018-12-19T11:30:13.795Z,32.73
2018-12-19T11:32:41.320Z,33.13
2018-12-19T11:35:08.794Z,33.90
2018-12-19T11:37:36.300Z,32.63
2018-12-19T11:40:05.633Z,34.33
2018-12-19T11:42:33.107Z,33.80
2018-12-19T11:45:00.617Z,31.47
2018-12-19T11:47:28.087Z,33.50
2018-12-19T11:49:55.563Z,31.73
2018-12-19T11:52:23.035Z,32.60
2018-12-19T11:54:50.499Z,33.20
2018-12-19T11:57:17.997Z,32.67
2018-12-19T11:59:45.466Z,34.60
2018-12-19T12:02:12.962Z,32.27
2018-12-19T12:04:40.431Z,33.53
2018-12-19T12:07:08.086Z,32.27
2018-12-19T12:09:35.591Z,33.13
2018-12-19T12:12:03.073Z,33.77
2018-12-19T12:14:30.538Z,30.60
2018-12-19T12:16:58.019Z,31.87
2018-12-19T12:19:25.588Z,32.67
2018-12-19T12:21:53.194Z,32.00
2018-12-19T12:24:20.675Z,32.37
2018-12-19T12:26:48.151Z,31.50
2018-12-19T12:29:15.750Z,32.73
2018-12-19T12:31:43.221Z,33.07
2018-12-19T12:34:10.713Z,32.97
2018-12-19T12:36:38.175Z,32.63
2018-12-19T12:39:06.330Z,31.97
2018-12-19T12:41:33.804Z,30.57
2018-12-19T12:44:01.279Z,32.17
2018-12-19T12:46:28.780Z,29.70
2018-12-19T12:48:56.250Z,29.87
2018-12-19T12:51:23.726Z,30.33
2018-12-19T12:53:51.204Z,31.20
2018-12-19T12:56:18.715Z,30.10
2018-12-19T12:58:46.211Z,30.50
2018-12-19T13:01:13.677Z,31.53
2018-12-19T13:03:41.150Z,30.80
2018-12-19T13:06:08.622Z,31.93
2018-12-19T13:08:36.122Z,31.73
2018-12-19T13:11:03.601Z,31.10
2018-12-19T13:13:31.075Z,32.23
2018-12-19T13:15:58.574Z,31.37
2018-12-19T13:18:26.091Z,32.23
2018-12-19T13:20:53.654Z,32.40
2018-12-19T13:23:21.138Z,31.50
2018-12-19T13:25:48.605Z,30.00
2018-12-19T13:28:16.184Z,30.40
2018-12-19T13:30:43.663Z,33.80
2018-12-19T13:33:11.125Z,31.87
2018-12-19T13:35:38.605Z,33.97
2018-12-19T13:38:06.085Z,33.27
2018-12-19T13:40:33.587Z,32.83
2018-12-19T13:43:01.064Z,32.00
2018-12-19T13:45:28.541Z,32.27
2018-12-19T13:47:56.005Z,32.83
2018-12-19T13:50:24.876Z,33.53
2018-12-19T13:52:52.618Z,34.00
2018-12-19T13:55:20.082Z,33.30
2018-12-19T13:57:47.553Z,32.90
2018-12-19T14:00:15.045Z,33.40
2018-12-19T14:02:42.530Z,32.63
2018-12-19T14:05:10.005Z,33.03
2018-12-19T14:07:37.507Z,32.47
2018-12-19T14:10:05.551Z,33.50
2018-12-19T14:12:33.033Z,34.40
2018-12-19T14:15:00.497Z,34.33
2018-12-19T14:17:27.970Z,34.70
2018-12-19T14:19:55.665Z,33.87
2018-12-19T14:22:24.103Z,34.13
2018-12-19T14:24:51.589Z,33.57
2018-12-19T14:27:19.056Z,34.50
2018-12-19T14:29:46.519Z,33.57
2018-12-19T14:32:14.313Z,33.60
2018-12-19T14:34:41.782Z,34.30
2018-12-19T14:37:09.281Z,33.30
2018-12-19T14:39:36.758Z,33.30
2018-12-19T14:42:04.234Z,33.17
2018-12-19T14:44:31.731Z,34.90
2018-12-19T14:46:59.198Z,32.53
2018-12-19T14:49:26.667Z,34.90
2018-12-19T14:51:54.141Z,32.83
2018-12-19T14:54:21.614Z,33.10
2018-12-19T14:56:49.117Z,33.87
2018-12-19T14:59:16.598Z,32.87
2018-12-19T15:01:44.078Z,32.63
2018-12-19T15:04:11.559Z,34.00
2018-12-19T15:06:39.030Z,34.10
2018-12-19T15:09:06.711Z,33.73
2018-12-19T15:11:34.197Z,33.13
2018-12-19T15:14:01.671Z,33.33
2018-12-19T15:16:29.179Z,30.77
2018-12-19T15:18:56.713Z,33.47
2018-12-19T15:21:24.250Z,32.43
2018-12-19T15:23:51.737Z,31.77
2018-12-19T15:26:19.250Z,32.30
2018-12-19T15:28:46.713Z,31.37
2018-12-19T15:31:14.184Z,31.77
2018-12-19T15:33:41.650Z,34.90
2018-12-19T15:36:09.305Z,33.70
2018-12-19T15:38:36.803Z,34.10
2018-12-19T15:41:04.272Z,34.73
2018-12-19T15:43:31.742Z,34.50
2018-12-19T15:45:59.220Z,36.70
2018-12-19T15:48:26.725Z,37.13
2018-12-19T15:50:54.257Z,35.37
2018-12-19T15:53:21.726Z,37.00
2018-12-19T15:55:49.203Z,36.40
2018-12-19T15:58:16.681Z,36.40
2018-12-19T16:00:44.169Z,35.57
2018-12-19T16:03:11.670Z,36.33
2018-12-19T16:05:39.329Z,36.83
2018-12-19T16:08:06.790Z,35.03
2018-12-19T16:10:34.290Z,35.13
2018-12-19T16:13:01.762Z,36.77
2018-12-19T16:15:29.255Z,36.93
2018-12-19T16:17:56.726Z,36.60
2018-12-19T16:20:24.189Z,36.33
2018-12-19T16:22:51.672Z,37.53
2018-12-19T16:25:19.267Z,37.30
2018-12-19T16:27:46.770Z,36.97
2018-12-19T16:30:14.302Z,38.97
2018-12-19T16:32:41.780Z,39.00
2018-12-19T16:35:09.359Z,40.40
2018-12-19T16:37:36.859Z,39.87
2018-12-19T16:40:04.406Z,41.13
2018-12-19T16:42:31.874Z,42.80
2018-12-19T16:44:59.354Z,42.60
2018-12-19T16:47:26.828Z,40.03
2018-12-19T16:49:54.343Z,40.90
2018-12-19T16:52:21.815Z,41.47
2018-12-19T16:54:49.285Z,41.33
2018-12-19T16:57:16.761Z,43.03
2018-12-19T16:59:44.238Z,42.70
2018-12-19T17:02:11.722Z,41.90
2018-12-19T17:04:39.210Z,40.73
2018-12-19T17:07:06.691Z,43.97
2018-12-19T17:09:34.166Z,43.63
2018-12-19T17:12:01.636Z,44.03
2018-12-19T17:14:29.247Z,44.57
2018-12-19T17:16:56.757Z,41.63
2018-12-19T17:19:24.232Z,41.90
2018-12-19T17:21:51.705Z,42.47
2018-12-19T17:24:21.174Z,47.50
2018-12-19T17:26:48.670Z,44.87
2018-12-19T17:29:17.081Z,45.23
2018-12-19T17:31:44.541Z,44.47
2018-12-19T17:34:12.028Z,44.43
2018-12-19T17:36:39.493Z,44.97
2018-12-19T17:39:07.091Z,44.83
2018-12-19T17:41:34.595Z,45.37
2018-12-19T17:44:02.072Z,44.47
2018-12-19T17:46:29.566Z,44.53
2018-12-19T17:48:57.042Z,44.57
2018-12-19T17:51:24.505Z,45.13
2018-12-19T17:53:51.975Z,44.30
2018-12-19T17:56:19.437Z,44.00
2018-12-19T17:58:46.926Z,45.10
2018-12-19T18:01:14.546Z,44.07
2018-12-19T18:03:42.014Z,44.20
2018-12-19T18:06:09.481Z,47.60
2018-12-19T18:08:36.951Z,45.00
2018-12-19T18:11:04.427Z,47.53
2018-12-19T18:13:31.945Z,45.43
2018-12-19T18:16:00.658Z,44.30
2018-12-19T18:18:28.161Z,44.73
2018-12-19T18:20:55.625Z,44.00
2018-12-19T18:23:23.099Z,45.73
2018-12-19T18:25:50.562Z,44.43
2018-12-19T18:28:18.047Z,44.70
2018-12-19T18:30:45.536Z,44.27
2018-12-19T18:33:13.278Z,44.90
2018-12-19T18:35:40.779Z,46.10
2018-12-19T18:38:08.251Z,46.93
2018-12-19T18:40:35.730Z,47.10
2018-12-19T18:43:03.295Z,47.70
2018-12-19T18:45:30.790Z,46.53
2018-12-19T18:47:58.346Z,45.00
2018-12-19T18:50:25.847Z,46.03
2018-12-19T18:52:53.329Z,44.20
2018-12-19T18:55:20.954Z,46.23
2018-12-19T18:57:48.607Z,44.53
2018-12-19T19:00:18.157Z,45.20
2018-12-19T19:02:46.139Z,43.97
2018-12-19T19:05:13.808Z,45.30
2018-12-19T19:07:41.331Z,45.63
2018-12-19T19:10:08.938Z,46.00
2018-12-19T19:12:36.637Z,45.53
2018-12-19T19:15:04.704Z,45.73
2018-12-19T19:17:32.213Z,45.00
2018-12-19T19:19:59.811Z,47.97
2018-12-19T19:22:27.406Z,45.83
2018-12-19T19:24:54.897Z,46.93
2018-12-19T19:27:22.420Z,46.77
2018-12-19T19:29:49.937Z,47.43
2018-12-19T19:32:18.732Z,45.87
2018-12-19T19:34:46.498Z,46.03
2018-12-19T19:37:13.978Z,46.50
2018-12-19T19:39:41.533Z,46.50
2018-12-19T19:42:09.043Z,48.17
2018-12-19T19:44:36.522Z,46.60
2018-12-19T19:47:04.051Z,46.47
2018-12-19T19:49:31.543Z,46.23
2018-12-19T19:51:59.071Z,47.37
2018-12-19T19:54:26.590Z,45.37
2018-12-19T19:56:54.177Z,46.03
2018-12-19T19:59:21.670Z,45.83
2018-12-19T20:01:49.160Z,47.20
2018-12-19T20:04:16.638Z,45.87
2018-12-19T20:06:44.137Z,46.30
2018-12-19T20:09:11.638Z,44.30
2018-12-19T20:11:39.143Z,45.90
2018-12-19T20:14:06.766Z,45.43
2018-12-19T20:16:36.297Z,49.73
2018-12-19T20:19:03.806Z,44.80
2018-12-19T20:21:31.359Z,47.00
2018-12-19T20:23:58.833Z,46.67
2018-12-19T20:26:26.466Z,44.67
2018-12-19T20:28:53.955Z,43.43
2018-12-19T20:31:21.454Z,42.63
2018-12-19T20:33:49.126Z,45.10
2018-12-19T20:36:16.611Z,46.30
2018-12-19T20:38:44.343Z,43.63
2018-12-19T20:41:11.821Z,47.87
2018-12-19T20:43:40.102Z,46.60
2018-12-19T20:46:07.846Z,48.07
2018-12-19T20:48:35.408Z,44.90
2018-12-19T20:51:02.894Z,41.27
2018-12-19T20:53:30.402Z,40.43
2018-12-19T20:56:03.595Z,41.07
2018-12-19T20:58:27.440Z,42.53
2018-12-19T21:00:54.973Z,42.50
2018-12-19T21:03:22.585Z,44.13
2018-12-19T21:05:50.111Z,44.17
2018-12-19T21:08:17.660Z,43.10
2018-12-19T21:10:45.167Z,40.93
2018-12-19T21:13:12.715Z,40.73
2018-12-19T21:15:40.190Z,42.50
2018-12-19T21:18:13.298Z,41.90
2018-12-19T21:20:40.812Z,45.17
2018-12-19T21:23:08.319Z,43.83
2018-12-19T21:25:35.896Z,43.27
2018-12-19T21:28:03.469Z,46.57
2018-12-19T21:30:31.157Z,44.37
2018-12-19T21:32:59.316Z,46.10
2018-12-19T21:35:26.827Z,43.50
2018-12-19T21:37:54.334Z,44.13
2018-12-19T21:40:22.137Z,45.17
2018-12-19T21:42:49.716Z,46.87
2018-12-19T21:45:17.391Z,47.13
2018-12-19T21:47:44.932Z,44.47
2018-12-19T21:50:12.535Z,44.23
2018-12-19T21:52:40.247Z,45.47
2018-12-19T21:55:07.786Z,44.97
2018-12-19T21:57:35.930Z,43.47
2018-12-19T22:00:03.471Z,44.23
2018-12-19T22:02:31.127Z,44.97
2018-12-19T22:04:58.876Z,44.40
2018-12-19T22:07:26.362Z,46.40
2018-12-19T22:09:53.903Z,44.80
2018-12-19T22:12:21.417Z,45.93
2018-12-19T22:14:48.907Z,46.70
2018-12-19T22:17:22.161Z,46.37
2018-12-19T22:19:49.703Z,47.30
2018-12-19T22:22:17.212Z,44.37
2018-12-19T22:24:44.792Z,46.73
2018-12-19T22:27:12.355Z,45.43
2018-12-19T22:29:40.041Z,44.30
2018-12-19T22:32:08.347Z,44.43
2018-12-19T22:34:35.948Z,46.87
2018-12-19T22:37:03.470Z,46.17
2018-12-19T22:39:30.975Z,47.90
2018-12-19T22:41:58.484Z,47.97
2018-12-19T22:44:26.143Z,47.13
2018-12-19T22:46:53.728Z,48.17
2018-12-19T22:49:21.289Z,46.67
2018-12-19T22:51:48.764Z,44.37
2018-12-19T22:54:16.277Z,43.30
2018-12-19T22:56:43.937Z,44.93
2018-12-19T22:59:11.566Z,46.27
2018-12-19T23:01:44.822Z,44.47
2018-12-19T23:04:12.421Z,45.70
2018-12-19T23:06:40.263Z,45.97
2018-12-19T23:09:07.887Z,49.50
2018-12-19T23:11:35.428Z,45.53
2018-12-19T23:14:03.137Z,46.63
2018-12-19T23:16:30.766Z,45.20
2018-12-19T23:18:58.291Z,46.73
2018-12-19T23:21:25.890Z,46.83
2018-12-19T23:23:53.387Z,45.97
2018-12-19T23:26:20.910Z,46.97
2018-12-19T23:28:48.437Z,45.30
2018-12-19T23:31:15.955Z,47.17
2018-12-19T23:33:43.452Z,45.20
2018-12-19T23:36:10.931Z,45.03
2018-12-19T23:38:38.456Z,44.90
2018-12-19T23:41:06.092Z,44.60
2018-12-19T23:43:33.824Z,43.83
2018-12-19T23:46:01.360Z,45.90
2018-12-19T23:48:28.946Z,45.07
2018-12-19T23:50:56.527Z,44.57
2018-12-19T23:53:24.027Z,42.33
2018-12-19T23:55:51.521Z,45.53
2018-12-19T23:58:19.133Z,43.13
